DAUG/GHA METAR and TAF weather

Enter ICAO airport designator
Station Type Date Time Source
DAUG METAR 2019/06/16 06:00 UTC NOAA

DAUG 160600Z 00000KT CAVOK 28/// Q1014


Station Type Date Time Source
DAUG Decoded METAR 2019/06/16 06:00 UTC NOAA

Ghardaia, Algeria (DAUG) 32-23N 003-49E 450M
Jun 16, 2019 - 02:00 AM EDT / 2019.06.16 0600 UTC
Wind: Calm:0
Visibility: greater than 7 mile(s):0
Temperature: 82 F (28 C)
Pressure (altimeter): 29.94 in. Hg (1014 hPa)
ob: DAUG 160600Z 00000KT CAVOK 28/// Q1014
cycle: 6

Station Type Date Time Source
DAUG TAF 2019/06/16 06:33 UTC NOAA

TAF DAUG 160500Z 1606/1706 36006KT CAVOK
BECMG 1612/1615 24014KT
BECMG 1703/1706 04012KT

Example: see airport list